createdAt,value
2018-09-26T00:00:36.178Z,26.06
2018-09-26T00:03:02.942Z,26.07
2018-09-26T00:05:29.564Z,26.04
2018-09-26T00:07:56.228Z,26.03
2018-09-26T00:10:22.904Z,26.00
2018-09-26T00:12:49.687Z,26.02
2018-09-26T00:15:16.457Z,26.01
2018-09-26T00:17:43.077Z,26.00
2018-09-26T00:20:09.791Z,26.01
2018-09-26T00:22:36.456Z,26.00
2018-09-26T00:25:03.207Z,25.99
2018-09-26T00:27:29.872Z,26.01
2018-09-26T00:29:56.583Z,26.00
2018-09-26T00:32:23.950Z,26.02
2018-09-26T00:34:50.620Z,25.96
2018-09-26T00:37:17.357Z,25.94
2018-09-26T00:39:44.123Z,25.92
2018-09-26T00:42:10.792Z,25.95
2018-09-26T00:44:37.438Z,25.93
2018-09-26T00:47:04.529Z,25.91
2018-09-26T00:49:31.185Z,25.92
2018-09-26T00:51:57.840Z,25.88
2018-09-26T00:54:25.548Z,25.89
2018-09-26T00:56:51.182Z,25.88
2018-09-26T00:59:17.838Z,25.89
2018-09-26T01:01:44.531Z,25.87
2018-09-26T01:04:11.192Z,25.87
2018-09-26T01:06:37.854Z,25.91
2018-09-26T01:09:04.569Z,25.87
2018-09-26T01:11:31.220Z,25.84
2018-09-26T01:13:57.928Z,25.83
2018-09-26T01:16:24.580Z,25.81
2018-09-26T01:18:51.253Z,25.84
2018-09-26T01:21:17.939Z,25.87
2018-09-26T01:23:44.601Z,25.82
2018-09-26T01:26:11.398Z,25.78
2018-09-26T01:28:38.067Z,25.79
2018-09-26T01:31:04.716Z,25.77
2018-09-26T01:33:31.406Z,25.78
2018-09-26T01:35:58.075Z,25.76
2018-09-26T01:38:24.729Z,25.79
2018-09-26T01:40:52.718Z,25.78
2018-09-26T01:43:18.045Z,25.76
2018-09-26T01:45:44.695Z,25.78
2018-09-26T01:48:11.480Z,25.75
2018-09-26T01:50:39.289Z,25.75
2018-09-26T01:53:04.864Z,25.75
2018-09-26T01:55:31.552Z,25.72
2018-09-26T01:57:58.344Z,25.72
2018-09-26T02:00:25.018Z,25.69
2018-09-26T02:02:51.702Z,25.72
2018-09-26T02:05:18.455Z,25.69
2018-09-26T02:07:45.114Z,25.74
2018-09-26T02:10:11.780Z,25.68
2018-09-26T02:12:38.508Z,25.71
2018-09-26T02:15:05.209Z,25.71
2018-09-26T02:17:31.983Z,25.67
2018-09-26T02:19:58.657Z,25.69
2018-09-26T02:22:25.361Z,25.66
2018-09-26T02:24:52.142Z,25.66
2018-09-26T02:27:18.901Z,25.66
2018-09-26T02:29:45.581Z,25.65
2018-09-26T02:32:13.506Z,25.69
2018-09-26T02:34:39.029Z,25.64
2018-09-26T02:37:05.778Z,25.60
2018-09-26T02:39:32.515Z,25.63
2018-09-26T02:41:59.203Z,25.61
2018-09-26T02:44:25.865Z,25.62
2018-09-26T02:46:52.572Z,25.60
2018-09-26T02:49:19.243Z,25.61
2018-09-26T02:51:45.904Z,25.62
2018-09-26T02:54:12.644Z,25.58
2018-09-26T02:56:39.360Z,25.62
2018-09-26T02:59:06.065Z,25.58
2018-09-26T03:01:32.718Z,25.58
2018-09-26T03:03:59.433Z,25.55
2018-09-26T03:06:26.143Z,25.56
2018-09-26T03:08:52.826Z,25.47
2018-09-26T03:11:19.541Z,24.80
2018-09-26T03:13:46.211Z,24.39
2018-09-26T03:16:14.101Z,23.98
2018-09-26T03:18:39.592Z,23.94
2018-09-26T03:21:07.603Z,23.99
2018-09-26T03:23:32.919Z,23.95
2018-09-26T03:25:59.619Z,24.25
2018-09-26T03:28:28.499Z,24.23
2018-09-26T03:30:52.994Z,23.95
2018-09-26T03:33:19.701Z,24.06
2018-09-26T03:35:46.468Z,24.28
2018-09-26T03:38:13.120Z,24.68
2018-09-26T03:40:39.757Z,24.90
2018-09-26T03:43:11.753Z,25.04
2018-09-26T03:45:36.271Z,25.12
2018-09-26T03:48:02.912Z,25.20
2018-09-26T03:50:29.633Z,25.24
2018-09-26T03:52:57.769Z,25.26
2018-09-26T03:55:23.112Z,25.29
2018-09-26T03:57:49.786Z,25.30
2018-09-26T04:00:17.727Z,25.42
2018-09-26T04:02:43.097Z,25.48
2018-09-26T04:05:09.781Z,25.57
2018-09-26T04:07:36.469Z,25.52
2018-09-26T04:10:03.116Z,25.49
2018-09-26T04:12:29.863Z,25.47
2018-09-26T04:14:56.596Z,25.49
2018-09-26T04:17:23.247Z,25.55
2018-09-26T04:19:49.964Z,25.54
2018-09-26T04:22:16.646Z,25.47
2018-09-26T04:24:43.295Z,25.55
2018-09-26T04:27:10.013Z,25.50
2018-09-26T04:29:36.569Z,25.40
2018-09-26T04:32:03.235Z,25.23
2018-09-26T04:34:29.869Z,25.13
2018-09-26T04:36:57.835Z,25.14
2018-09-26T04:39:23.199Z,25.29
2018-09-26T04:41:51.815Z,25.44
2018-09-26T04:44:18.500Z,25.58
2018-09-26T04:46:45.194Z,25.71
2018-09-26T04:49:12.665Z,25.85
2018-09-26T04:51:42.356Z,26.00
2018-09-26T04:54:09.154Z,26.11
2018-09-26T04:56:35.856Z,26.16
2018-09-26T04:59:02.552Z,26.07
2018-09-26T05:01:29.228Z,26.07
2018-09-26T05:03:55.826Z,26.09
2018-09-26T05:06:22.562Z,26.08
2018-09-26T05:08:49.262Z,26.20
2018-09-26T05:11:15.893Z,26.20
2018-09-26T05:13:42.575Z,26.29
2018-09-26T05:16:09.361Z,26.35
2018-09-26T05:18:35.996Z,26.42
2018-09-26T05:21:04.643Z,26.48
2018-09-26T05:23:29.331Z,26.56
2018-09-26T05:25:56.012Z,26.64
2018-09-26T05:28:22.653Z,26.65
2018-09-26T05:30:49.297Z,26.73
2018-09-26T05:33:16.506Z,26.72
2018-09-26T05:35:43.118Z,26.86
2018-09-26T05:38:09.820Z,26.87
2018-09-26T05:40:39.741Z,26.89
2018-09-26T05:43:06.379Z,26.84
2018-09-26T05:45:33.134Z,26.96
2018-09-26T05:47:59.905Z,27.02
2018-09-26T05:50:26.595Z,26.99
2018-09-26T05:52:53.314Z,27.02
2018-09-26T05:55:20.031Z,27.17
2018-09-26T05:57:46.672Z,27.12
2018-09-26T06:00:13.540Z,27.16
2018-09-26T06:02:40.253Z,27.02
2018-09-26T06:05:07.351Z,27.11
2018-09-26T06:07:34.074Z,27.16
2018-09-26T06:10:00.767Z,27.26
2018-09-26T06:12:27.602Z,27.26
2018-09-26T06:14:55.546Z,27.33
2018-09-26T06:17:22.203Z,27.23
2018-09-26T06:19:48.878Z,27.29
2018-09-26T06:22:15.559Z,27.27
2018-09-26T06:24:42.272Z,27.33
2018-09-26T06:27:08.909Z,27.32
2018-09-26T06:29:35.521Z,27.43
2018-09-26T06:32:03.281Z,27.51
2018-09-26T06:34:28.897Z,27.42
2018-09-26T06:36:55.499Z,27.17
2018-09-26T06:39:23.446Z,27.02
2018-09-26T06:41:48.928Z,26.90
2018-09-26T06:44:15.596Z,26.86
2018-09-26T06:46:42.334Z,26.75
2018-09-26T06:49:10.362Z,26.78
2018-09-26T06:51:35.669Z,26.67
2018-09-26T06:54:02.435Z,26.65
2018-09-26T06:56:29.026Z,26.59
2018-09-26T06:58:55.722Z,26.71
2018-09-26T07:01:22.391Z,26.73
2018-09-26T07:03:49.117Z,26.55
2018-09-26T07:06:20.986Z,26.46
2018-09-26T07:08:47.724Z,26.41
2018-09-26T07:11:14.365Z,26.35
2018-09-26T07:13:41.124Z,26.36
2018-09-26T07:16:07.720Z,26.32
2018-09-26T07:18:34.401Z,26.31
2018-09-26T07:21:04.382Z,26.26
2018-09-26T07:23:34.210Z,26.20
2018-09-26T07:26:00.898Z,26.21
2018-09-26T07:28:27.576Z,26.19
2018-09-26T07:30:54.220Z,26.17
2018-09-26T07:33:20.868Z,26.14
2018-09-26T07:35:47.525Z,26.10
2018-09-26T07:38:14.244Z,26.08
2018-09-26T07:40:41.014Z,26.10
2018-09-26T07:43:10.716Z,26.06
2018-09-26T07:45:37.499Z,26.05
2018-09-26T07:48:06.099Z,26.06
2018-09-26T07:50:30.674Z,25.99
2018-09-26T07:52:58.762Z,25.98
2018-09-26T07:55:24.015Z,25.95
2018-09-26T07:57:50.750Z,26.02
2018-09-26T08:00:17.485Z,26.14
2018-09-26T08:02:44.136Z,25.96
2018-09-26T08:05:10.784Z,25.92
2018-09-26T08:07:37.522Z,25.89
2018-09-26T08:10:04.182Z,25.94
2018-09-26T08:12:34.100Z,25.97
2018-09-26T08:15:00.714Z,25.94
2018-09-26T08:17:27.474Z,25.92
2018-09-26T08:19:54.070Z,25.86
2018-09-26T08:22:20.711Z,25.91
2018-09-26T08:24:47.419Z,26.01
2018-09-26T08:27:14.104Z,25.91
2018-09-26T08:29:40.826Z,25.94
2018-09-26T08:32:08.788Z,25.82
2018-09-26T08:34:34.060Z,25.84
2018-09-26T08:37:00.788Z,25.91
2018-09-26T08:39:27.389Z,25.89
2018-09-26T08:41:54.177Z,25.82
2018-09-26T08:44:20.817Z,25.81
2018-09-26T08:46:47.465Z,25.78
2018-09-26T08:49:14.115Z,25.73
2018-09-26T08:51:40.754Z,25.92
2018-09-26T08:54:08.792Z,25.91
2018-09-26T08:56:34.133Z,25.75
2018-09-26T08:59:00.878Z,25.77
2018-09-26T09:01:28.966Z,25.80
2018-09-26T09:03:54.368Z,25.90
2018-09-26T09:06:21.072Z,25.91
2018-09-26T09:08:47.693Z,25.81
2018-09-26T09:11:15.599Z,25.71
2018-09-26T09:13:40.948Z,25.70
2018-09-26T09:16:10.566Z,25.69
2018-09-26T09:18:37.227Z,25.68
2018-09-26T09:21:03.852Z,25.65
2018-09-26T09:23:30.518Z,25.67
2018-09-26T09:25:57.223Z,25.77
2018-09-26T09:28:23.832Z,25.63
2018-09-26T09:30:50.561Z,25.55
2018-09-26T09:33:17.208Z,25.60
2018-09-26T09:35:43.839Z,25.60
2018-09-26T09:38:10.577Z,25.48
2018-09-26T09:40:37.261Z,25.50
2018-09-26T09:43:04.008Z,25.49
2018-09-26T09:45:30.708Z,25.68
2018-09-26T09:47:58.718Z,25.64
2018-09-26T09:50:24.059Z,25.66
2018-09-26T09:52:50.737Z,25.72
2018-09-26T09:55:17.335Z,25.84
2018-09-26T09:57:43.970Z,25.92
2018-09-26T10:00:10.646Z,26.06
2018-09-26T10:02:37.376Z,26.16
2018-09-26T10:05:03.970Z,26.08
2018-09-26T10:07:30.629Z,26.20
2018-09-26T10:09:57.287Z,26.14
2018-09-26T10:12:23.992Z,26.31
2018-09-26T10:14:50.604Z,26.30
2018-09-26T10:17:17.245Z,26.32
2018-09-26T10:19:43.896Z,26.37
2018-09-26T10:22:10.566Z,26.40
2018-09-26T10:24:37.228Z,26.50
2018-09-26T10:27:03.909Z,26.42
2018-09-26T10:29:30.545Z,26.44
2018-09-26T10:31:57.205Z,26.42
2018-09-26T10:34:23.942Z,26.48
2018-09-26T10:36:50.618Z,26.54
2018-09-26T10:39:17.284Z,26.55
2018-09-26T10:41:45.178Z,26.55
2018-09-26T10:44:10.623Z,26.64
2018-09-26T10:46:37.365Z,26.65
2018-09-26T10:49:04.028Z,26.62
2018-09-26T10:51:34.035Z,26.66
2018-09-26T10:54:03.602Z,26.72
2018-09-26T10:56:30.459Z,26.73
2018-09-26T10:58:56.986Z,26.75
2018-09-26T11:01:23.716Z,26.74
2018-09-26T11:03:50.403Z,26.77
2018-09-26T11:06:17.051Z,26.82
2018-09-26T11:08:43.778Z,26.82
2018-09-26T11:11:12.756Z,26.71
2018-09-26T11:13:37.175Z,26.87
2018-09-26T11:16:04.549Z,26.80
2018-09-26T11:18:31.566Z,26.81
2018-09-26T11:20:58.303Z,26.75
2018-09-26T11:23:24.942Z,26.85
2018-09-26T11:25:51.668Z,26.83
2018-09-26T11:28:18.370Z,26.88
2018-09-26T11:30:44.986Z,26.97
2018-09-26T11:33:14.830Z,26.95
2018-09-26T11:35:40.056Z,26.94
2018-09-26T11:38:05.402Z,26.96
2018-09-26T11:40:32.127Z,26.89
2018-09-26T11:42:58.933Z,26.90
2018-09-26T11:45:25.653Z,26.90
2018-09-26T11:47:52.535Z,26.87
2018-09-26T11:50:19.528Z,26.92
2018-09-26T11:52:46.328Z,26.98
2018-09-26T11:55:16.110Z,26.96
2018-09-26T11:57:42.742Z,26.98
2018-09-26T12:00:09.385Z,26.89
2018-09-26T12:02:36.065Z,26.90
2018-09-26T12:05:02.767Z,26.88
2018-09-26T12:07:29.578Z,26.98
2018-09-26T12:09:56.178Z,26.96
2018-09-26T12:12:23.013Z,26.97
2018-09-26T12:14:49.574Z,26.91
2018-09-26T12:17:19.206Z,26.98
2018-09-26T12:19:45.912Z,26.98
2018-09-26T12:22:12.612Z,27.02
2018-09-26T12:24:39.226Z,26.99
2018-09-26T12:27:08.089Z,26.98
2018-09-26T12:29:32.667Z,26.92
2018-09-26T12:31:59.349Z,26.91
2018-09-26T12:34:26.042Z,26.99
2018-09-26T12:36:53.024Z,26.90
2018-09-26T12:39:20.435Z,26.83
2018-09-26T12:41:47.165Z,26.96
2018-09-26T12:44:14.123Z,26.92
2018-09-26T12:46:40.775Z,26.97
2018-09-26T12:49:09.619Z,26.99
2018-09-26T12:51:34.127Z,27.02
2018-09-26T12:54:00.827Z,27.05
2018-09-26T12:56:27.512Z,26.98
2018-09-26T12:58:54.158Z,27.06
2018-09-26T13:01:20.970Z,27.00
2018-09-26T13:03:47.620Z,26.92
2018-09-26T13:06:18.430Z,26.94
2018-09-26T13:08:44.094Z,26.98
2018-09-26T13:11:10.735Z,26.94
2018-09-26T13:13:37.388Z,26.99
2018-09-26T13:16:04.076Z,26.98
2018-09-26T13:18:30.686Z,26.98
2018-09-26T13:20:57.379Z,26.96
2018-09-26T13:23:24.057Z,26.98
2018-09-26T13:25:50.720Z,26.98
2018-09-26T13:28:20.598Z,26.95
2018-09-26T13:30:47.409Z,26.95
2018-09-26T13:33:14.384Z,26.93
2018-09-26T13:35:41.230Z,27.01
2018-09-26T13:38:07.943Z,26.94
2018-09-26T13:40:34.717Z,26.94
2018-09-26T13:43:01.462Z,26.99
2018-09-26T13:45:28.168Z,27.00
2018-09-26T13:47:54.833Z,27.01
2018-09-26T13:50:21.542Z,26.87
2018-09-26T13:52:49.523Z,26.86
2018-09-26T13:55:14.954Z,26.84
2018-09-26T13:57:41.717Z,26.83
2018-09-26T14:00:08.467Z,26.79
2018-09-26T14:02:35.185Z,26.77
2018-09-26T14:05:01.923Z,26.83
2018-09-26T14:07:28.581Z,26.89
2018-09-26T14:09:56.652Z,26.83
2018-09-26T14:12:21.999Z,26.79
2018-09-26T14:17:15.280Z,26.72
2018-09-26T14:19:42.048Z,26.68
2018-09-26T14:22:08.746Z,26.64
2018-09-26T14:24:35.436Z,26.71
2018-09-26T14:27:02.141Z,26.63
2018-09-26T14:29:32.077Z,26.56
2018-09-26T14:31:58.739Z,26.53
2018-09-26T14:34:26.737Z,26.50
2018-09-26T14:36:52.260Z,26.47
2018-09-26T14:39:18.993Z,26.52
2018-09-26T14:41:45.578Z,26.52
2018-09-26T14:44:12.257Z,26.47
2018-09-26T14:46:39.857Z,26.54
2018-09-26T14:49:06.489Z,26.41
2018-09-26T14:51:33.188Z,26.36
2018-09-26T14:54:01.021Z,26.36
2018-09-26T14:56:26.492Z,26.40
2018-09-26T14:58:53.102Z,26.36
2018-09-26T15:01:19.732Z,26.37
2018-09-26T15:03:47.307Z,26.34
2018-09-26T15:06:13.952Z,26.51
2018-09-26T15:08:40.588Z,26.42
2018-09-26T15:11:07.189Z,26.50
2018-09-26T15:13:33.873Z,26.30
2018-09-26T15:16:00.510Z,26.29
2018-09-26T15:18:27.164Z,26.29
2018-09-26T15:20:56.338Z,26.17
2018-09-26T15:23:23.041Z,26.06
2018-09-26T15:25:49.683Z,26.03
2018-09-26T15:28:16.509Z,25.97
2018-09-26T15:30:43.049Z,26.00
2018-09-26T15:33:09.654Z,26.03
2018-09-26T15:35:36.305Z,26.07
2018-09-26T15:38:03.045Z,26.04
2018-09-26T15:40:29.728Z,25.93
2018-09-26T15:42:56.337Z,25.94
2018-09-26T15:45:22.985Z,25.98
2018-09-26T15:47:49.688Z,25.94
2018-09-26T15:50:16.413Z,26.02
2018-09-26T15:52:43.047Z,26.00
2018-09-26T15:55:09.779Z,25.98
2018-09-26T15:57:36.429Z,25.99
2018-09-26T16:00:03.090Z,25.94
2018-09-26T16:02:29.769Z,25.92
2018-09-26T16:04:57.016Z,25.96
2018-09-26T16:07:23.718Z,25.95
2018-09-26T16:09:50.360Z,25.93
2018-09-26T16:12:17.080Z,25.79
2018-09-26T16:14:43.689Z,25.88
2018-09-26T16:17:10.318Z,25.87
2018-09-26T16:19:37.007Z,25.86
2018-09-26T16:22:03.645Z,25.84
2018-09-26T16:24:30.294Z,25.82
2018-09-26T16:26:59.977Z,25.82
2018-09-26T16:29:29.816Z,25.77
2018-09-26T16:31:56.498Z,25.75
2018-09-26T16:34:23.180Z,25.78
2018-09-26T16:36:51.670Z,25.75
2018-09-26T16:39:16.532Z,25.75
2018-09-26T16:41:43.199Z,25.73
2018-09-26T16:44:09.938Z,25.69
2018-09-26T16:46:38.113Z,25.67
2018-09-26T16:49:03.213Z,25.72
2018-09-26T16:51:29.858Z,25.71
2018-09-26T16:53:56.603Z,25.69
2018-09-26T16:56:24.736Z,25.70
2018-09-26T16:58:49.922Z,25.66
2018-09-26T17:01:16.560Z,25.64
2018-09-26T17:03:43.198Z,25.63
2018-09-26T17:06:12.729Z,25.63
2018-09-26T17:08:37.141Z,25.66
2018-09-26T17:11:03.831Z,25.64
2018-09-26T17:13:30.476Z,25.61
2018-09-26T17:15:58.495Z,25.59
2018-09-26T17:18:23.858Z,25.59
2018-09-26T17:20:50.473Z,25.57
2018-09-26T17:23:17.121Z,25.57
2018-09-26T17:25:43.767Z,25.56
2018-09-26T17:28:10.464Z,25.56
2018-09-26T17:30:37.187Z,25.53
2018-09-26T17:33:03.922Z,25.50
2018-09-26T17:35:30.602Z,25.50
2018-09-26T17:37:57.238Z,25.50
2018-09-26T17:40:23.939Z,25.47
2018-09-26T17:42:50.757Z,25.50
2018-09-26T17:45:19.562Z,25.48
2018-09-26T17:47:44.094Z,25.45
2018-09-26T17:50:10.727Z,25.45
2018-09-26T17:52:38.138Z,25.42
2018-09-26T17:55:04.791Z,25.42
2018-09-26T17:57:31.496Z,25.50
2018-09-26T17:59:58.204Z,25.49
2018-09-26T18:02:24.838Z,25.45
2018-09-26T18:04:51.512Z,25.43
2018-09-26T18:07:21.001Z,25.40
2018-09-26T18:09:47.679Z,25.38
2018-09-26T18:12:14.362Z,25.40
2018-09-26T18:14:41.135Z,25.37
2018-09-26T18:17:07.798Z,25.37
2018-09-26T18:19:34.490Z,25.32
2018-09-26T18:22:01.173Z,25.35
2018-09-26T18:24:27.853Z,25.34
2018-09-26T18:26:54.562Z,25.30
2018-09-26T18:29:21.249Z,25.30
2018-09-26T18:31:47.953Z,25.27
2018-09-26T18:34:14.647Z,25.26
2018-09-26T18:36:41.286Z,25.26
2018-09-26T18:39:08.083Z,25.22
2018-09-26T18:41:34.792Z,25.23
2018-09-26T18:44:01.480Z,25.20
2018-09-26T18:46:28.108Z,25.22
2018-09-26T18:48:54.756Z,25.22
2018-09-26T18:51:21.389Z,25.20
2018-09-26T18:53:48.078Z,25.16
2018-09-26T18:56:17.685Z,25.10
2018-09-26T18:58:44.371Z,25.12
2018-09-26T19:01:11.008Z,25.11
2018-09-26T19:03:37.731Z,25.06
2018-09-26T19:06:07.537Z,25.06
2018-09-26T19:08:34.176Z,25.07
2018-09-26T19:11:00.909Z,25.04
2018-09-26T19:13:27.584Z,25.02
2018-09-26T19:15:54.270Z,25.01
2018-09-26T19:18:23.979Z,24.99
2018-09-26T19:20:50.709Z,24.97
2018-09-26T19:23:17.387Z,24.95
2018-09-26T19:25:44.037Z,24.95
2018-09-26T19:28:10.677Z,24.94
2018-09-26T19:30:40.316Z,24.93
2018-09-26T19:33:10.040Z,24.89
2018-09-26T19:35:36.641Z,24.90
2018-09-26T19:38:03.321Z,24.88
2018-09-26T19:40:30.002Z,24.86
2018-09-26T19:42:56.606Z,24.84
2018-09-26T19:45:23.271Z,24.81
2018-09-26T19:47:49.953Z,24.82
2018-09-26T19:50:16.592Z,24.81
2018-09-26T19:52:44.613Z,24.81
2018-09-26T19:55:09.991Z,24.78
2018-09-26T19:57:36.765Z,24.75
2018-09-26T20:00:03.491Z,24.74
2018-09-26T20:02:30.335Z,24.74
2018-09-26T20:04:56.979Z,24.74
2018-09-26T20:07:23.966Z,24.70
2018-09-26T20:09:51.646Z,24.70
2018-09-26T20:12:18.397Z,24.69
2018-09-26T20:14:45.093Z,24.66
2018-09-26T20:17:11.771Z,24.66
2018-09-26T20:19:38.560Z,24.67
2018-09-26T20:22:05.278Z,24.63
2018-09-26T20:24:31.890Z,24.67
2018-09-26T20:26:58.687Z,24.64
2018-09-26T20:29:25.553Z,24.62
2018-09-26T20:31:52.421Z,24.63
2018-09-26T20:34:20.434Z,24.59
2018-09-26T20:36:45.721Z,24.56
2018-09-26T20:39:13.994Z,24.57
2018-09-26T20:41:39.244Z,24.53
2018-09-26T20:44:06.955Z,24.56
2018-09-26T20:46:32.585Z,24.52
2018-09-26T20:49:00.659Z,24.52
2018-09-26T20:51:28.801Z,24.50
2018-09-26T20:53:55.538Z,24.49
2018-09-26T20:56:22.194Z,24.48
2018-09-26T20:58:48.842Z,24.46
2018-09-26T21:01:15.583Z,24.44
2018-09-26T21:03:42.234Z,24.42
2018-09-26T21:06:08.895Z,24.42
2018-09-26T21:08:35.551Z,24.43
2018-09-26T21:11:02.246Z,24.45
2018-09-26T21:13:28.885Z,24.42
2018-09-26T21:15:55.605Z,24.40
2018-09-26T21:18:22.341Z,24.39
2018-09-26T21:20:50.287Z,24.37
2018-09-26T21:23:15.742Z,24.37
2018-09-26T21:25:42.280Z,24.36
2018-09-26T21:28:09.237Z,24.35
2018-09-26T21:30:36.228Z,24.34
2018-09-26T21:33:02.845Z,24.32
2018-09-26T21:35:29.486Z,24.32
2018-09-26T21:37:56.210Z,24.29
2018-09-26T21:40:25.155Z,24.30
2018-09-26T21:42:50.567Z,24.30
2018-09-26T21:45:17.303Z,24.28
2018-09-26T21:47:43.956Z,24.29
2018-09-26T21:50:10.684Z,24.27
2018-09-26T21:52:37.298Z,24.23
2018-09-26T21:55:04.036Z,24.24
2018-09-26T21:57:30.676Z,24.23
2018-09-26T21:59:57.413Z,24.22
2018-09-26T22:02:24.051Z,24.19
2018-09-26T22:04:50.686Z,24.15
2018-09-26T22:07:17.337Z,24.18
2018-09-26T22:09:43.973Z,24.17
2018-09-26T22:12:10.640Z,24.12
2018-09-26T22:14:37.313Z,24.13
2018-09-26T22:17:03.949Z,24.12
2018-09-26T22:19:30.600Z,24.12
2018-09-26T22:21:57.247Z,24.12
2018-09-26T22:24:23.890Z,24.09
2018-09-26T22:26:50.609Z,24.08
2018-09-26T22:29:17.224Z,24.06
2018-09-26T22:31:43.883Z,24.08
2018-09-26T22:34:10.521Z,24.05
2018-09-26T22:36:38.570Z,24.03
2018-09-26T22:39:03.886Z,24.05
2018-09-26T22:41:30.616Z,24.04
2018-09-26T22:43:57.268Z,24.01
2018-09-26T22:46:23.909Z,24.01
2018-09-26T22:48:50.556Z,24.00
2018-09-26T22:51:17.216Z,23.97
2018-09-26T22:53:43.858Z,23.98
2018-09-26T22:56:10.588Z,23.98
2018-09-26T22:58:37.331Z,23.96
2018-09-26T23:01:03.970Z,23.95
2018-09-26T23:03:30.651Z,23.95
2018-09-26T23:05:57.342Z,23.92
2018-09-26T23:08:26.793Z,23.92
2018-09-26T23:10:53.441Z,23.90
2018-09-26T23:13:21.998Z,23.92
2018-09-26T23:15:48.649Z,23.87
2018-09-26T23:18:15.311Z,23.87
2018-09-26T23:20:41.956Z,23.85
2018-09-26T23:23:08.602Z,23.82
2018-09-26T23:25:38.610Z,23.75
2018-09-26T23:28:07.504Z,23.66
2018-09-26T23:30:31.989Z,23.61
2018-09-26T23:32:58.649Z,23.60
2018-09-26T23:35:25.333Z,23.54
2018-09-26T23:37:53.327Z,23.60
2018-09-26T23:40:18.618Z,23.60
2018-09-26T23:42:45.268Z,23.60
2018-09-26T23:45:12.008Z,23.62
2018-09-26T23:47:38.655Z,23.61
2018-09-26T23:50:05.338Z,23.60
2018-09-26T23:52:32.004Z,23.58
2018-09-26T23:54:58.648Z,23.55
2018-09-26T23:57:25.324Z,23.61
2018-09-26T23:59:54.476Z,23.59
